Mortlach, Canada
Current Conditions -  °F | °C
As of 12:00 AM on Tuesday 27 Jan 2015 (Local Time) from CYQR Reporting Station
Broken Clouds Broken Clouds  
Wind Chill: 20°   Ceiling: 13000
Heat Index: 28°   Visibility: 15mi
Dew Point: 28°   Wind: 9mph
Humidity: 100%   Direction: 120°ESE
Pressure: 29.83"   Gusts: NA
Location:  50.45°N, 106.07°W
Report Text: CYQR 270600Z 12008KT 15SM BKN130 M02/M02 A2983 RMK AC6 SLP129
Loading
Personal Weather Stations






























Interactive Weather Map New forecast layout! Learn more

10-Day Weather Forecast

Advertisements
Track Severe Weather on mobile